Time;durP1;ratioP1;P1;durP2;ratioP2;P2;SDS_P1;SDS_P2;PMS_P1;PMS_P2;Temp;Humidity;BMP_temperature;BMP_pressure;BME280_temperature;BME280_humidity;BME280_pressure;Samples;Min_cycle;Max_cycle;Signal;HPM_P1;HPM_P2
2023/01/25 00:01:08;;;;;;;8.45;7.68;;;;;;;0.92;100.00;100361.47;4138927;28;20209;-47
2023/01/25 00:03:10;;;;;;;11.82;10.57;;;;;;;1.07;100.00;100359.19;4142451;28;20249;-46
2023/01/25 00:05:12;;;;;;;11.80;7.55;;;;;;;1.03;100.00;100364.00;4137894;28;20213;-47
2023/01/25 00:07:14;;;;;;;9.70;8.48;;;;;;;1.19;100.00;100358.84;4135818;28;20222;-46
2023/01/25 00:09:16;;;;;;;9.00;8.15;;;;;;;1.01;100.00;100360.59;4137952;28;20205;-46
2023/01/25 00:11:19;;;;;;;10.93;9.93;;;;;;;0.99;100.00;100357.19;4137338;28;20259;-48
2023/01/25 00:13:20;;;;;;;9.98;9.05;;;;;;;1.10;100.00;100354.34;4139610;28;20244;-47
2023/01/25 00:15:23;;;;;;;8.88;7.60;;;;;;;1.09;100.00;100358.00;4136307;28;20244;-46
2023/01/25 00:17:25;;;;;;;8.98;8.18;;;;;;;1.01;100.00;100357.91;4141448;28;20635;-47
2023/01/25 00:19:27;;;;;;;10.48;9.40;;;;;;;1.04;100.00;100354.06;4139122;28;20233;-46
2023/01/25 00:21:29;;;;;;;8.70;7.90;;;;;;;1.05;100.00;100351.22;4121195;28;20238;-46
2023/01/25 00:23:33;;;;;;;10.25;9.23;;;;;;;1.01;100.00;100354.38;4137597;28;20233;-47
2023/01/25 00:25:34;;;;;;;10.85;9.18;;;;;;;1.00;100.00;100353.50;4137924;28;20287;-46
2023/01/25 00:27:36;;;;;;;9.05;8.13;;;;;;;0.94;100.00;100343.31;4139630;28;20233;-46
2023/01/25 00:29:38;;;;;;;11.23;9.40;;;;;;;1.08;100.00;100334.75;4136868;28;20267;-47
2023/01/25 00:31:50;;;;;;;9.75;8.63;;;;;;;1.03;100.00;100334.38;4139042;28;20213;-47
2023/01/25 00:34:20;;;;;;;9.18;8.27;;;;;;;1.01;100.00;100341.72;4115113;28;20244;-46
2023/01/25 00:36:27;;;;;;;10.57;9.57;;;;;;;0.94;100.00;100337.91;4129592;28;20217;-46
2023/01/25 00:38:32;;;;;;;10.27;9.23;;;;;;;1.02;100.00;100329.94;4130514;28;20296;-46
2023/01/25 00:40:34;;;;;;;9.52;8.50;;;;;;;1.02;100.00;100324.56;4135979;28;20202;-46
2023/01/25 00:42:36;;;;;;;8.88;8.07;;;;;;;1.06;100.00;100331.38;4135935;28;20230;-46
2023/01/25 00:44:38;;;;;;;9.45;8.45;;;;;;;1.04;100.00;100321.72;4134139;28;20308;-47
2023/01/25 00:46:40;;;;;;;9.27;8.48;;;;;;;1.17;100.00;100317.72;4135381;28;20233;-47
2023/01/25 00:48:42;;;;;;;10.98;9.90;;;;;;;1.12;100.00;100320.00;4153511;28;20256;-47
2023/01/25 00:50:44;;;;;;;10.50;9.45;;;;;;;1.09;100.00;100319.44;4139785;28;20305;-47
2023/01/25 00:52:45;;;;;;;12.65;9.52;;;;;;;1.04;100.00;100314.50;4136932;28;20661;-46
2023/01/25 00:54:47;;;;;;;13.90;9.02;;;;;;;1.10;100.00;100308.53;4135839;28;20208;-46
2023/01/25 00:56:55;;;;;;;8.57;7.50;;;;;;;1.09;100.00;100312.19;4137239;28;20277;-47
2023/01/25 00:58:57;;;;;;;8.93;8.05;;;;;;;0.96;100.00;100309.00;4150361;28;20781;-47
2023/01/25 01:00:58;;;;;;;9.43;8.43;;;;;;;1.05;100.00;100308.09;4134230;28;20766;-48
2023/01/25 01:03:00;;;;;;;10.07;9.07;;;;;;;1.12;100.00;100308.34;4124154;28;20237;-46
2023/01/25 01:05:02;;;;;;;9.13;8.23;;;;;;;1.13;100.00;100305.53;4136450;28;20214;-46
2023/01/25 01:07:04;;;;;;;9.10;8.20;;;;;;;1.08;100.00;100306.97;4141510;28;20216;-47
2023/01/25 01:09:07;;;;;;;10.23;9.32;;;;;;;1.15;100.00;100306.22;4148049;28;20236;-46
2023/01/25 01:11:11;;;;;;;9.50;8.60;;;;;;;1.03;100.00;100307.41;4120757;28;20245;-47
2023/01/25 01:13:12;;;;;;;8.65;7.90;;;;;;;1.04;100.00;100301.03;4137194;28;20269;-46
2023/01/25 01:15:14;;;;;;;8.48;7.82;;;;;;;1.04;100.00;100301.03;4135785;28;20217;-47
2023/01/25 01:17:16;;;;;;;9.13;8.23;;;;;;;1.05;100.00;100307.25;4136431;28;20230;-47
2023/01/25 01:19:18;;;;;;;9.13;8.35;;;;;;;1.10;100.00;100300.44;4120930;28;20215;-46
2023/01/25 01:21:20;;;;;;;8.40;7.15;;;;;;;1.10;100.00;100300.44;4135307;28;20213;-47
2023/01/25 01:23:22;;;;;;;8.90;7.93;;;;;;;1.03;100.00;100301.16;4150858;28;20240;-47
2023/01/25 01:25:24;;;;;;;9.55;8.32;;;;;;;1.04;100.00;100303.72;4136498;28;20331;-47
2023/01/25 01:27:25;;;;;;;9.13;8.10;;;;;;;1.05;100.00;100302.72;4138218;28;20213;-48
2023/01/25 01:29:27;;;;;;;8.82;8.07;;;;;;;1.06;100.00;100307.09;4135118;28;20241;-46
2023/01/25 01:31:29;;;;;;;10.50;8.88;;;;;;;1.07;100.00;100299.88;4134879;28;20205;-47
2023/01/25 01:33:31;;;;;;;9.35;8.45;;;;;;;1.06;100.00;100303.56;4135146;28;20233;-47
2023/01/25 01:35:35;;;;;;;9.80;9.00;;;;;;;1.09;100.00;100297.88;4134343;28;20652;-46
2023/01/25 01:37:41;;;;;;;10.43;9.52;;;;;;;1.03;100.00;100304.72;4140722;28;20288;-47
2023/01/25 01:39:42;;;;;;;8.88;7.90;;;;;;;0.93;100.00;100301.19;4137495;28;20292;-46
2023/01/25 01:41:44;;;;;;;9.18;8.35;;;;;;;0.98;100.00;100311.53;4136928;28;20300;-47
2023/01/25 01:43:47;;;;;;;9.23;8.32;;;;;;;1.01;100.00;100305.84;4137957;28;20249;-47
2023/01/25 01:45:52;;;;;;;9.00;8.20;;;;;;;1.07;100.00;100305.28;4139632;28;20750;-47
2023/01/25 01:47:54;;;;;;;8.48;7.72;;;;;;;0.99;100.00;100307.81;4137547;28;20300;-46
2023/01/25 01:50:03;;;;;;;8.90;8.00;;;;;;;1.08;100.00;100307.81;4135741;28;20205;-47
2023/01/25 01:52:15;;;;;;;9.95;9.05;;;;;;;1.03;100.00;100306.56;4137886;28;20240;-58
2023/01/25 01:54:46;;;;;;;8.80;8.02;;;;;;;1.08;100.00;100301.56;4130753;28;20711;-46
2023/01/25 01:57:00;;;;;;;9.70;8.63;;;;;;;0.89;100.00;100297.06;4137702;28;20245;-47
2023/01/25 01:59:02;;;;;;;9.73;8.73;;;;;;;0.90;100.00;100296.09;4134758;28;20312;-48
2023/01/25 02:01:04;;;;;;;10.05;9.07;;;;;;;0.82;100.00;100297.81;4133723;28;20324;-46
2023/01/25 02:03:08;;;;;;;10.43;9.35;;;;;;;0.82;100.00;100295.94;4133937;28;20663;-46
2023/01/25 02:05:16;;;;;;;11.30;9.35;;;;;;;0.78;100.00;100283.78;4137443;28;20202;-46
2023/01/25 02:07:37;;;;;;;11.25;10.27;;;;;;;0.80;100.00;100287.16;4134794;28;20205;-48
2023/01/25 02:09:39;;;;;;;10.57;9.60;;;;;;;0.77;100.00;100276.69;4139739;28;20213;-46
2023/01/25 02:11:41;;;;;;;9.88;8.90;;;;;;;0.83;100.00;100276.13;4133950;28;20216;-47
2023/01/25 02:13:43;;;;;;;9.55;8.63;;;;;;;0.93;100.00;100271.53;4140310;28;20324;-49
2023/01/25 02:15:46;;;;;;;10.23;9.30;;;;;;;0.81;100.00;100267.31;4140944;28;20722;-46
2023/01/25 02:17:49;;;;;;;10.75;9.85;;;;;;;0.84;100.00;100271.56;4137952;28;20205;-46
2023/01/25 02:20:28;;;;;;;11.80;10.60;;;;;;;0.83;100.00;100270.75;4139270;28;20338;-48
2023/01/25 02:22:41;;;;;;;16.20;9.77;;;;;;;0.76;100.00;100272.31;4137408;28;20268;-47
2023/01/25 02:24:54;;;;;;;11.68;10.23;;;;;;;0.89;100.00;100263.91;4137979;28;20224;-46
2023/01/25 02:26:56;;;;;;;10.27;9.30;;;;;;;0.81;100.00;100267.31;4140620;28;20240;-47
2023/01/25 02:29:06;;;;;;;10.27;9.27;;;;;;;0.81;100.00;100261.09;4141932;28;20216;-47
2023/01/25 02:31:08;;;;;;;12.98;10.48;;;;;;;0.76;100.00;100264.22;4140994;28;20206;-46
2023/01/25 02:33:10;;;;;;;11.70;10.50;;;;;;;0.77;100.00;100260.53;4127396;28;20237;-46
2023/01/25 02:35:20;;;;;;;12.23;11.05;;;;;;;0.82;100.00;100258.22;4140003;28;20252;-46
2023/01/25 02:37:22;;;;;;;10.30;9.30;;;;;;;0.86;100.00;100259.66;4140779;28;20811;-47
2023/01/25 02:39:25;;;;;;;11.20;9.73;;;;;;;0.79;100.00;100263.94;4143464;28;20209;-46
2023/01/25 02:41:35;;;;;;;12.45;9.93;;;;;;;0.76;100.00;100271.44;4150112;28;20240;-47
2023/01/25 02:43:37;;;;;;;12.63;11.38;;;;;;;0.82;100.00;100262.78;4139459;28;20244;-47
2023/01/25 02:45:39;;;;;;;16.85;11.85;;;;;;;0.82;100.00;100269.00;4140019;28;20293;-47
2023/01/25 02:47:41;;;;;;;10.88;9.85;;;;;;;0.79;100.00;100265.75;4141225;28;20822;-47
2023/01/25 02:49:42;;;;;;;10.57;9.60;;;;;;;0.73;100.00;100269.03;4139557;28;20209;-46
2023/01/25 02:51:47;;;;;;;16.07;12.70;;;;;;;0.81;100.00;100270.00;4128499;28;20201;-46
2023/01/25 02:53:50;;;;;;;11.60;10.47;;;;;;;0.76;100.00;100268.75;4134860;28;20225;-46
2023/01/25 02:55:54;;;;;;;13.45;12.30;;;;;;;0.81;100.00;100272.69;4142507;28;20639;-46
2023/01/25 02:57:56;;;;;;;14.93;11.15;;;;;;;0.77;100.00;100276.69;4137091;28;20268;-46
2023/01/25 02:59:57;;;;;;;12.67;10.97;;;;;;;0.81;100.00;100261.94;4139423;28;20213;-46
2023/01/25 03:01:59;;;;;;;15.75;11.18;;;;;;;0.80;100.00;100267.47;4122424;28;20202;-46
2023/01/25 03:04:01;;;;;;;12.43;11.17;;;;;;;0.71;100.00;100261.13;4132851;28;20224;-47
2023/01/25 03:06:03;;;;;;;12.40;10.60;;;;;;;0.73;100.00;100264.50;4137698;28;20295;-46
2023/01/25 03:08:05;;;;;;;15.53;10.70;;;;;;;0.71;100.00;100255.72;4144185;28;20291;-48
2023/01/25 03:10:07;;;;;;;13.87;10.20;;;;;;;0.73;100.00;100260.94;4143033;28;20206;-46
2023/01/25 03:12:09;;;;;;;11.93;10.70;;;;;;;0.75;100.00;100259.81;4141652;28;20296;-46
2023/01/25 03:14:11;;;;;;;11.10;10.00;;;;;;;0.71;100.00;100263.81;4138915;28;20707;-46
2023/01/25 03:16:13;;;;;;;11.40;10.30;;;;;;;0.68;100.00;100252.47;4142052;28;20205;-47
2023/01/25 03:18:14;;;;;;;12.68;11.48;;;;;;;0.75;100.00;100257.13;4139958;28;20211;-46
2023/01/25 03:20:16;;;;;;;12.97;11.40;;;;;;;0.74;100.00;100259.97;4138756;28;20210;-46
2023/01/25 03:22:18;;;;;;;11.57;10.48;;;;;;;0.67;100.00;100259.69;4142951;28;20750;-46
2023/01/25 03:24:20;;;;;;;12.83;11.53;;;;;;;0.70;100.00;100258.56;4133160;28;20209;-47
2023/01/25 03:26:23;;;;;;;14.80;12.13;;;;;;;0.81;100.00;100253.84;4142136;28;20217;-46
2023/01/25 03:28:25;;;;;;;13.38;11.75;;;;;;;0.72;100.00;100257.44;4137902;28;20316;-46
2023/01/25 03:30:26;;;;;;;12.80;11.57;;;;;;;0.72;100.00;100251.16;4138022;28;20603;-46
2023/01/25 03:32:28;;;;;;;13.55;12.07;;;;;;;0.73;100.00;100253.72;4137537;28;20647;-46
2023/01/25 03:34:30;;;;;;;12.90;11.60;;;;;;;0.74;100.00;100249.22;4136451;28;20244;-48
2023/01/25 03:36:32;;;;;;;11.75;10.55;;;;;;;0.81;100.00;100253.84;4143254;28;20225;-47
2023/01/25 03:38:34;;;;;;;12.27;11.10;;;;;;;0.83;100.00;100243.78;4138717;28;20217;-46
2023/01/25 03:40:39;;;;;;;11.57;10.48;;;;;;;0.79;100.00;100242.38;4125495;28;20201;-46
2023/01/25 03:42:41;;;;;;;11.43;10.38;;;;;;;0.72;100.00;100235.88;4136282;28;20228;-46
2023/01/25 03:44:42;;;;;;;12.80;11.50;;;;;;;0.76;100.00;100237.28;4122424;28;20202;-46
2023/01/25 03:46:44;;;;;;;15.05;10.27;;;;;;;0.69;100.00;100236.16;4136342;28;20672;-46
2023/01/25 03:48:46;;;;;;;12.23;11.10;;;;;;;0.71;100.00;100244.09;4139928;28;20236;-45
2023/01/25 03:50:50;;;;;;;14.17;11.57;;;;;;;0.77;100.00;100244.38;4137873;28;20213;-46
2023/01/25 03:52:58;;;;;;;12.23;10.20;;;;;;;0.74;100.00;100241.97;4135793;28;20237;-46
2023/01/25 03:54:59;;;;;;;14.63;13.27;;;;;;;0.73;100.00;100242.97;4138501;28;20221;-46
2023/01/25 03:57:01;;;;;;;12.43;10.93;;;;;;;0.69;100.00;100241.53;4138468;28;20206;-46
2023/01/25 03:59:03;;;;;;;11.32;10.20;;;;;;;0.66;100.00;100235.59;4136883;28;20325;-47
2023/01/25 04:01:06;;;;;;;12.00;10.80;;;;;;;0.67;100.00;100238.16;4137034;28;20238;-47
2023/01/25 04:03:08;;;;;;;10.23;9.23;;;;;;;0.69;100.00;100236.16;4138045;28;20230;-45
2023/01/25 04:05:10;;;;;;;16.05;12.63;;;;;;;0.69;100.00;100241.53;4133259;28;20205;-46
2023/01/25 04:07:12;;;;;;;12.30;11.10;;;;;;;0.75;100.00;100240.97;4138135;28;20252;-47
2023/01/25 04:09:13;;;;;;;12.55;11.25;;;;;;;0.71;100.00;100244.97;4137914;28;20220;-47
2023/01/25 04:11:15;;;;;;;13.95;9.90;;;;;;;0.75;100.00;100246.34;4138605;28;20243;-46
2023/01/25 04:13:18;;;;;;;15.68;10.68;;;;;;;0.71;100.00;100239.56;4137543;28;20694;-46
2023/01/25 04:15:20;;;;;;;12.15;10.88;;;;;;;0.79;100.00;100241.50;4138082;28;20275;-47
2023/01/25 04:17:21;;;;;;;12.07;11.00;;;;;;;0.68;100.00;100247.91;4139215;28;20309;-47
2023/01/25 04:19:23;;;;;;;10.73;9.70;;;;;;;0.68;100.00;100234.44;4135864;28;20205;-47
2023/01/25 04:21:25;;;;;;;13.55;11.52;;;;;;;0.64;100.00;100238.44;4135422;28;20224;-48
2023/01/25 04:23:27;;;;;;;12.30;11.10;;;;;;;0.69;100.00;100240.72;4136784;28;20233;-46
2023/01/25 04:25:29;;;;;;;11.83;10.73;;;;;;;0.68;100.00;100234.44;4137438;28;20226;-47
2023/01/25 04:27:30;;;;;;;16.52;11.05;;;;;;;0.75;100.00;100240.97;4123905;28;20293;-46
2023/01/25 04:29:32;;;;;;;16.10;11.57;;;;;;;0.68;100.00;100237.16;4123506;28;20210;-46
2023/01/25 04:31:42;;;;;;;11.90;10.80;;;;;;;0.63;100.00;100235.91;4136555;28;20208;-45
2023/01/25 04:33:44;;;;;;;11.80;10.55;;;;;;;0.69;100.00;100230.75;4147832;28;20240;-47
2023/01/25 04:35:46;;;;;;;13.68;11.20;;;;;;;0.66;100.00;100231.06;4140295;28;20224;-46
2023/01/25 04:37:55;;;;;;;14.45;12.02;;;;;;;0.70;100.00;100220.84;4138760;28;20209;-46
2023/01/25 04:39:57;;;;;;;14.57;11.43;;;;;;;0.70;100.00;100221.72;4138689;28;20208;-46
2023/01/25 04:41:58;;;;;;;13.93;11.95;;;;;;;0.65;100.00;100215.03;4136671;28;20877;-47
2023/01/25 04:44:00;;;;;;;12.52;10.05;;;;;;;0.66;100.00;100214.91;4138657;28;20785;-47
2023/01/25 04:46:02;;;;;;;18.43;12.20;;;;;;;0.65;100.00;100213.22;4135010;28;20252;-46
2023/01/25 04:48:08;;;;;;;13.40;12.02;;;;;;;0.70;100.00;100212.78;4149828;28;20220;-46
2023/01/25 04:50:10;;;;;;;11.70;10.50;;;;;;;0.66;100.00;100224.81;4138600;28;20237;-47
2023/01/25 04:52:12;;;;;;;16.90;11.77;;;;;;;0.66;100.00;100224.81;4134895;28;20210;-46
2023/01/25 04:54:14;;;;;;;13.13;11.23;;;;;;;0.64;100.00;100219.59;4135380;28;20236;-46
2023/01/25 04:56:16;;;;;;;15.70;12.00;;;;;;;0.62;100.00;100218.03;4134536;28;20242;-46
2023/01/25 04:58:18;;;;;;;12.73;11.25;;;;;;;0.64;100.00;100222.28;4133280;28;20213;-47
2023/01/25 05:00:20;;;;;;;13.52;11.95;;;;;;;0.64;100.00;100224.13;4151044;28;20212;-46
2023/01/25 05:02:22;;;;;;;14.77;12.03;;;;;;;0.70;100.00;100218.16;4133872;28;20210;-46
2023/01/25 05:04:24;;;;;;;13.50;12.13;;;;;;;0.62;100.00;100218.88;4135363;28;20206;-47
2023/01/25 05:06:25;;;;;;;15.73;11.68;;;;;;;0.73;100.00;100218.72;4122141;28;20238;-47
2023/01/25 05:08:27;;;;;;;11.27;10.05;;;;;;;0.60;100.00;100212.78;4143229;28;20734;-46
2023/01/25 05:10:29;;;;;;;12.55;11.18;;;;;;;0.65;100.00;100212.34;4135976;28;20214;-46
2023/01/25 05:12:31;;;;;;;13.02;11.82;;;;;;;0.64;100.00;100214.22;4136817;28;20619;-47
2023/01/25 05:14:32;;;;;;;15.05;11.70;;;;;;;0.61;100.00;100213.66;4136827;28;20815;-47
2023/01/25 05:16:34;;;;;;;13.30;12.00;;;;;;;0.60;100.00;100209.28;4139382;28;20213;-46
2023/01/25 05:18:36;;;;;;;11.90;10.77;;;;;;;0.63;100.00;100214.34;4138105;28;20212;-46
2023/01/25 05:20:55;;;;;;;15.50;12.70;;;;;;;0.67;100.00;100208.53;4138273;28;20263;-46
2023/01/25 05:22:56;;;;;;;14.52;11.38;;;;;;;0.67;100.00;100205.81;4138400;28;20271;-47
2023/01/25 05:25:00;;;;;;;15.65;12.48;;;;;;;0.75;100.00;100203.25;4136772;28;20245;-46
2023/01/25 05:27:02;;;;;;;15.13;11.57;;;;;;;0.80;100.00;100198.28;4138266;28;20732;-47
2023/01/25 05:29:04;;;;;;;16.40;12.40;;;;;;;0.77;100.00;100190.50;4139372;28;20632;-47
2023/01/25 05:31:06;;;;;;;12.30;11.10;;;;;;;0.73;100.00;100194.47;4135931;28;20679;-46
2023/01/25 05:33:08;;;;;;;13.02;10.90;;;;;;;0.60;100.00;100185.88;4134185;28;20765;-46
2023/01/25 05:35:10;;;;;;;12.85;10.82;;;;;;;0.70;100.00;100194.78;4119615;28;20285;-46
2023/01/25 05:37:14;;;;;;;15.90;10.52;;;;;;;0.73;100.00;100188.22;4136922;28;20213;-46
2023/01/25 05:39:16;;;;;;;13.38;12.05;;;;;;;0.62;100.00;100191.94;4134635;28;20552;-46
2023/01/25 05:41:18;;;;;;;12.60;11.07;;;;;;;0.64;100.00;100195.38;4134836;28;20204;-47
2023/01/25 05:43:22;;;;;;;14.00;10.23;;;;;;;0.63;100.00;100193.66;4137315;28;20766;-47
2023/01/25 05:45:24;;;;;;;12.13;10.88;;;;;;;0.66;100.00;100189.81;4139620;28;20205;-46
2023/01/25 05:47:26;;;;;;;12.83;11.10;;;;;;;0.70;100.00;100189.38;4144211;28;20244;-46
2023/01/25 05:49:28;;;;;;;12.52;11.25;;;;;;;0.70;100.00;100193.91;4135330;28;20245;-46
2023/01/25 05:51:30;;;;;;;12.98;11.45;;;;;;;0.61;100.00;100184.88;4132967;28;20210;-46
2023/01/25 05:53:32;;;;;;;13.43;12.13;;;;;;;0.69;100.00;100189.53;4135595;28;20316;-46
2023/01/25 05:55:35;;;;;;;11.75;10.63;;;;;;;0.67;100.00;100183.44;4134458;28;20226;-46
2023/01/25 05:57:37;;;;;;;11.75;10.65;;;;;;;0.64;100.00;100184.59;4135028;28;20217;-47
2023/01/25 05:59:39;;;;;;;12.35;10.90;;;;;;;0.66;100.00;100179.91;4136900;28;20259;-47
2023/01/25 06:01:40;;;;;;;12.75;11.32;;;;;;;0.73;100.00;100183.69;4134147;28;20223;-46
2023/01/25 06:03:42;;;;;;;12.23;10.48;;;;;;;0.82;100.00;100184.66;4138882;28;20320;-47
2023/01/25 06:05:44;;;;;;;12.88;10.60;;;;;;;0.68;100.00;100169.81;4136949;28;20211;-47
2023/01/25 06:07:46;;;;;;;12.30;11.10;;;;;;;0.68;100.00;100175.19;4135145;28;20246;-46
2023/01/25 06:09:47;;;;;;;10.67;9.57;;;;;;;0.64;100.00;100167.56;4133790;28;20244;-46
2023/01/25 06:11:49;;;;;;;11.43;9.82;;;;;;;0.69;100.00;100171.50;4121231;28;20202;-47
2023/01/25 06:13:51;;;;;;;11.32;10.23;;;;;;;0.71;100.00;100164.16;4120073;28;20664;-46
2023/01/25 06:15:54;;;;;;;14.38;12.25;;;;;;;0.71;100.00;100164.16;4147725;28;20229;-46
2023/01/25 06:17:56;;;;;;;10.35;9.25;;;;;;;0.71;100.00;100161.47;4136592;28;20209;-47
2023/01/25 06:19:58;;;;;;;12.55;11.18;;;;;;;0.76;100.00;100161.88;4133980;28;20205;-48
2023/01/25 06:21:59;;;;;;;10.25;8.48;;;;;;;0.78;100.00;100165.25;4134501;28;21258;-46
2023/01/25 06:24:03;;;;;;;12.13;10.80;;;;;;;0.76;100.00;100166.41;4133676;28;21073;-47
2023/01/25 06:26:07;;;;;;;13.02;11.13;;;;;;;0.70;100.00;100161.59;4133395;28;20205;-47
2023/01/25 06:28:09;;;;;;;12.35;10.52;;;;;;;0.63;100.00;100161.34;4134660;28;20224;-47
2023/01/25 06:30:11;;;;;;;9.85;8.93;;;;;;;0.65;100.00;100169.25;4150031;28;20204;-46
2023/01/25 06:32:13;;;;;;;11.30;10.10;;;;;;;0.76;100.00;100164.56;4134911;28;20206;-46
2023/01/25 06:34:15;;;;;;;13.35;11.73;;;;;;;0.69;100.00;100166.13;4150304;28;20762;-46
2023/01/25 06:36:19;;;;;;;12.02;10.15;;;;;;;0.72;100.00;100160.44;4113476;28;20264;-46
2023/01/25 06:38:20;;;;;;;10.38;9.30;;;;;;;0.71;100.00;100158.75;4131986;28;20210;-46
2023/01/25 06:40:22;;;;;;;11.05;10.05;;;;;;;0.72;100.00;100159.59;4130445;28;20243;-47
2023/01/25 06:42:24;;;;;;;11.50;10.30;;;;;;;0.84;100.00;100167.34;4137578;28;20209;-46
2023/01/25 06:44:26;;;;;;;8.80;8.00;;;;;;;0.76;100.00;100167.25;4138245;28;20210;-46
2023/01/25 06:46:31;;;;;;;9.88;8.88;;;;;;;0.85;100.00;100160.09;4128905;28;20245;-46
2023/01/25 06:48:33;;;;;;;10.13;9.13;;;;;;;0.93;100.00;100170.97;4150020;28;20271;-47
2023/01/25 06:50:35;;;;;;;9.82;8.63;;;;;;;0.82;100.00;100171.19;4145270;28;20356;-47
2023/01/25 06:52:37;;;;;;;9.93;8.95;;;;;;;0.92;100.00;100172.84;4132302;28;20276;-46
2023/01/25 06:54:40;;;;;;;8.23;6.75;;;;;;;0.77;100.00;100165.38;4132843;28;20346;-46
2023/01/25 06:56:41;;;;;;;8.80;8.00;;;;;;;0.70;100.00;100166.97;4132644;28;20754;-47
2023/01/25 06:58:44;;;;;;;8.98;7.50;;;;;;;0.77;100.00;100171.66;4110544;28;20344;-46
2023/01/25 07:00:45;;;;;;;10.32;7.38;;;;;;;0.64;100.00;100164.88;4135026;28;20220;-46
2023/01/25 07:02:47;;;;;;;6.50;5.90;;;;;;;0.74;100.00;100166.53;4139388;28;20248;-46
2023/01/25 07:04:50;;;;;;;9.43;7.75;;;;;;;0.67;100.00;100157.34;4140435;28;20205;-48
2023/01/25 07:06:52;;;;;;;7.85;6.18;;;;;;;0.68;100.00;100167.13;4140304;28;20202;-47
2023/01/25 07:08:55;;;;;;;9.10;8.30;;;;;;;0.75;100.00;100170.91;4137010;28;20244;-47
2023/01/25 07:10:59;;;;;;;8.35;7.50;;;;;;;0.63;100.00;100172.13;4136489;28;20253;-47
2023/01/25 07:13:02;;;;;;;7.90;6.50;;;;;;;0.77;100.00;100168.09;4137703;28;20339;-46
2023/01/25 07:15:04;;;;;;;7.18;6.57;;;;;;;0.63;100.00;100172.13;4140047;28;20389;-47
2023/01/25 07:17:08;;;;;;;7.13;6.43;;;;;;;0.68;100.00;100169.81;4139214;28;20210;-46
2023/01/25 07:19:14;;;;;;;6.00;5.50;;;;;;;0.67;100.00;100168.13;4136238;28;20606;-47
2023/01/25 07:21:21;;;;;;;6.80;6.15;;;;;;;0.70;100.00;100177.75;4141025;28;20205;-46
2023/01/25 07:23:25;;;;;;;6.85;6.25;;;;;;;0.64;100.00;100181.03;4141650;28;20232;-45
2023/01/25 07:25:28;;;;;;;5.97;5.35;;;;;;;0.76;100.00;100183.41;4138688;28;20217;-46
2023/01/25 07:27:32;;;;;;;9.50;7.75;;;;;;;0.78;100.00;100170.63;4136640;28;20267;-46
2023/01/25 07:29:34;;;;;;;8.18;7.47;;;;;;;0.75;100.00;100175.47;4140679;28;20210;-46
2023/01/25 07:31:37;;;;;;;7.22;6.53;;;;;;;0.69;100.00;100174.19;4137135;28;20201;-46
2023/01/25 07:33:40;;;;;;;6.55;6.03;;;;;;;0.63;100.00;100171.25;4134348;28;20321;-46
2023/01/25 07:35:42;;;;;;;7.70;7.00;;;;;;;0.55;100.00;100174.69;4139828;28;20228;-46
2023/01/25 07:37:45;;;;;;;7.45;6.75;;;;;;;0.61;100.00;100173.25;4139502;28;20201;-46
2023/01/25 07:39:49;;;;;;;7.70;5.53;;;;;;;0.65;100.00;100175.50;4137744;28;21117;-46
2023/01/25 07:41:51;;;;;;;7.87;7.07;;;;;;;0.68;100.00;100171.69;4139844;28;20201;-46
2023/01/25 07:43:58;;;;;;;7.25;6.57;;;;;;;0.62;100.00;100169.56;4134050;28;20321;-46
2023/01/25 07:46:02;;;;;;;7.03;6.43;;;;;;;0.61;100.00;100168.72;4149766;28;20264;-46
2023/01/25 07:48:10;;;;;;;7.55;6.82;;;;;;;0.65;100.00;100170.13;4152076;28;20481;-50
2023/01/25 07:50:13;;;;;;;6.55;5.93;;;;;;;0.68;100.00;100180.59;4134181;28;20661;-47
2023/01/25 07:52:15;;;;;;;6.55;5.95;;;;;;;0.71;100.00;100169.53;4139738;28;20626;-46
2023/01/25 07:54:18;;;;;;;7.45;6.75;;;;;;;0.65;100.00;100163.88;4126200;28;20206;-47
2023/01/25 07:56:28;;;;;;;6.55;5.93;;;;;;;0.70;100.00;100172.38;4144468;28;20237;-47
2023/01/25 07:58:30;;;;;;;7.78;7.07;;;;;;;0.66;100.00;100174.50;4144412;28;20213;-47
2023/01/25 08:00:32;;;;;;;7.30;6.68;;;;;;;0.67;100.00;100173.50;4139553;28;20289;-46
2023/01/25 08:02:36;;;;;;;8.30;7.55;;;;;;;0.75;100.00;100170.91;4136595;28;20324;-47
2023/01/25 08:04:38;;;;;;;6.13;5.53;;;;;;;0.67;100.00;100169.97;4154172;28;20224;-47
2023/01/25 08:06:44;;;;;;;6.78;5.82;;;;;;;0.62;100.00;100173.09;4137169;28;20210;-46
2023/01/25 08:08:48;;;;;;;9.52;6.32;;;;;;;0.76;100.00;100174.47;4137073;28;20243;-47
2023/01/25 08:10:51;;;;;;;7.80;7.07;;;;;;;0.70;100.00;100172.38;4137125;28;20264;-47
2023/01/25 08:12:53;;;;;;;7.45;6.65;;;;;;;0.74;100.00;100173.78;4136262;28;20221;-47
2023/01/25 08:14:56;;;;;;;8.55;6.63;;;;;;;0.76;100.00;100167.25;4141139;28;20209;-47
2023/01/25 08:16:58;;;;;;;6.78;6.00;;;;;;;0.67;100.00;100162.72;4134107;28;20252;-47
2023/01/25 08:19:02;;;;;;;6.78;6.10;;;;;;;0.70;100.00;100157.06;4152650;28;20209;-46
2023/01/25 08:21:07;;;;;;;8.43;7.55;;;;;;;0.71;100.00;100158.75;4137470;28;20210;-46
2023/01/25 08:23:09;;;;;;;6.60;6.07;;;;;;;0.76;100.00;100161.88;4137295;28;20229;-46
2023/01/25 08:25:11;;;;;;;10.15;8.93;;;;;;;0.72;100.00;100171.22;4136352;28;20652;-47
2023/01/25 08:27:14;;;;;;;7.22;6.53;;;;;;;0.70;100.00;100162.47;4143868;28;20308;-47
2023/01/25 08:29:16;;;;;;;8.48;7.68;;;;;;;0.64;100.00;100162.19;4137495;28;20216;-48
2023/01/25 08:31:21;;;;;;;5.43;4.93;;;;;;;0.69;100.00;100160.72;4123944;28;20293;-48
2023/01/25 08:33:24;;;;;;;6.47;5.68;;;;;;;0.72;100.00;100160.44;4135454;28;20225;-48
2023/01/25 08:35:26;;;;;;;8.33;7.63;;;;;;;0.64;100.00;100162.19;4140571;28;20229;-47
2023/01/25 08:37:31;;;;;;;8.80;8.00;;;;;;;0.61;100.00;100157.94;4136611;28;20639;-48
2023/01/25 08:39:33;;;;;;;9.00;8.10;;;;;;;0.78;100.00;100159.88;4134382;28;20304;-47
2023/01/25 08:41:35;;;;;;;8.15;7.38;;;;;;;0.70;100.00;100156.22;4138536;28;20209;-47
2023/01/25 08:43:38;;;;;;;7.05;6.43;;;;;;;0.67;100.00;100151.97;4142886;28;20236;-46
2023/01/25 08:45:41;;;;;;;8.70;7.95;;;;;;;0.67;100.00;100157.34;4138761;28;20224;-47
2023/01/25 08:47:43;;;;;;;7.50;6.68;;;;;;;0.59;100.00;100162.63;4138220;28;20213;-47
2023/01/25 08:49:51;;;;;;;6.07;5.47;;;;;;;0.64;100.00;100154.97;4137104;28;20244;-46
2023/01/25 08:51:57;;;;;;;9.63;8.73;;;;;;;0.75;100.00;100154.75;4137038;28;20296;-47
2023/01/25 08:54:06;;;;;;;9.52;7.78;;;;;;;0.69;100.00;100154.50;4141992;28;20240;-47
2023/01/25 08:56:11;;;;;;;8.43;7.60;;;;;;;0.66;100.00;100144.88;4136775;28;20256;-48
2023/01/25 08:58:15;;;;;;;6.77;6.17;;;;;;;0.59;100.00;100154.53;4121064;28;20759;-47
2023/01/25 09:00:18;;;;;;;9.07;6.47;;;;;;;0.54;100.00;100146.06;4123038;28;20221;-47
2023/01/25 09:02:21;;;;;;;8.35;7.55;;;;;;;0.65;100.00;100150.41;4137805;28;20247;-47
2023/01/25 09:04:27;;;;;;;8.80;7.95;;;;;;;0.52;100.00;100153.44;4135926;28;20295;-47
2023/01/25 09:06:38;;;;;;;7.35;6.65;;;;;;;0.57;100.00;100151.16;4110845;28;20613;-46
2023/01/25 09:08:40;;;;;;;9.10;8.18;;;;;;;0.70;100.00;100146.28;4138933;28;20212;-46
2023/01/25 09:10:42;;;;;;;8.68;7.68;;;;;;;0.66;100.00;100147.56;4138843;28;20237;-47
2023/01/25 09:12:44;;;;;;;6.68;6.07;;;;;;;0.65;100.00;100140.50;4140687;28;20629;-47
2023/01/25 09:14:46;;;;;;;6.22;5.63;;;;;;;0.64;100.00;100140.63;4121165;28;20207;-47
2023/01/25 09:16:51;;;;;;;7.82;7.15;;;;;;;0.60;100.00;100140.09;4136866;28;20275;-48
2023/01/25 09:18:56;;;;;;;7.28;6.68;;;;;;;0.73;100.00;100140.59;4137779;28;20214;-47
2023/01/25 09:21:12;;;;;;;7.75;6.80;;;;;;;0.68;100.00;100150.97;4138816;28;20209;-48
2023/01/25 09:23:21;;;;;;;7.25;6.57;;;;;;;0.60;100.00;100145.47;4139387;28;20287;-47
2023/01/25 09:25:28;;;;;;;9.15;8.35;;;;;;;0.52;100.00;100148.06;4133897;28;20684;-47
2023/01/25 09:27:32;;;;;;;7.47;6.80;;;;;;;0.54;100.00;100140.66;4124152;28;20211;-47